sensor_id;sensor_type;location;lat;lon;timestamp;temperature;humidity
44775;DHT22;31340;51.402;0.016;2024-03-23T00:54:16;8.00;96.90
44775;DHT22;31340;51.402;0.016;2024-03-23T00:56:43;8.00;96.90
44775;DHT22;31340;51.402;0.016;2024-03-23T00:59:10;7.90;96.90
44775;DHT22;31340;51.402;0.016;2024-03-23T01:01:37;7.90;97.00
44775;DHT22;31340;51.402;0.016;2024-03-23T01:04:04;7.90;97.10
44775;DHT22;31340;51.402;0.016;2024-03-23T01:06:30;7.90;97.20
44775;DHT22;31340;51.402;0.016;2024-03-23T01:08:57;7.90;97.30
44775;DHT22;31340;51.402;0.016;2024-03-23T01:11:23;7.90;97.40
44775;DHT22;31340;51.402;0.016;2024-03-23T01:13:51;7.80;97.50
44775;DHT22;31340;51.402;0.016;2024-03-23T01:16:21;7.80;97.50
44775;DHT22;31340;51.402;0.016;2024-03-23T01:18:48;7.80;97.60
44775;DHT22;31340;51.402;0.016;2024-03-23T01:21:14;7.80;97.70
44775;DHT22;31340;51.402;0.016;2024-03-23T01:23:41;7.80;97.80
44775;DHT22;31340;51.402;0.016;2024-03-23T01:26:09;7.70;97.80
44775;DHT22;31340;51.402;0.016;2024-03-23T01:28:36;7.70;97.90
44775;DHT22;31340;51.402;0.016;2024-03-23T01:31:03;7.70;98.00
44775;DHT22;31340;51.402;0.016;2024-03-23T01:33:29;7.70;98.10
44775;DHT22;31340;51.402;0.016;2024-03-23T01:35:56;7.70;98.20
44775;DHT22;31340;51.402;0.016;2024-03-23T01:38:22;7.70;98.30
44775;DHT22;31340;51.402;0.016;2024-03-23T01:40:49;7.70;98.40
44775;DHT22;31340;51.402;0.016;2024-03-23T01:43:15;7.70;98.50
44775;DHT22;31340;51.402;0.016;2024-03-23T01:45:42;7.70;98.60
44775;DHT22;31340;51.402;0.016;2024-03-23T01:48:12;7.70;98.70
44775;DHT22;31340;51.402;0.016;2024-03-23T01:50:42;7.70;98.70
44775;DHT22;31340;51.402;0.016;2024-03-23T01:53:08;7.70;98.80
44775;DHT22;31340;51.402;0.016;2024-03-23T01:55:35;7.60;98.80
44775;DHT22;31340;51.402;0.016;2024-03-23T01:58:06;7.60;98.90
44775;DHT22;31340;51.402;0.016;2024-03-23T02:00:33;7.60;98.90
44775;DHT22;31340;51.402;0.016;2024-03-23T02:02:59;7.60;99.00
44775;DHT22;31340;51.402;0.016;2024-03-23T02:05:26;7.60;99.10
44775;DHT22;31340;51.402;0.016;2024-03-23T02:07:53;7.60;99.20
44775;DHT22;31340;51.402;0.016;2024-03-23T02:10:19;7.60;99.30
44775;DHT22;31340;51.402;0.016;2024-03-23T02:12:46;7.50;99.40
44775;DHT22;31340;51.402;0.016;2024-03-23T02:15:13;7.50;99.50
44775;DHT22;31340;51.402;0.016;2024-03-23T02:17:39;7.60;99.60
44775;DHT22;31340;51.402;0.016;2024-03-23T02:20:06;7.50;99.60
44775;DHT22;31340;51.402;0.016;2024-03-23T02:22:39;7.50;99.60
44775;DHT22;31340;51.402;0.016;2024-03-23T02:25:06;7.50;99.70
44775;DHT22;31340;51.402;0.016;2024-03-23T02:27:33;7.50;99.80
44775;DHT22;31340;51.402;0.016;2024-03-23T02:30:01;7.50;99.80
44775;DHT22;31340;51.402;0.016;2024-03-23T02:32:28;7.50;99.90
44775;DHT22;31340;51.402;0.016;2024-03-23T02:34:55;7.40;99.90
44775;DHT22;31340;51.402;0.016;2024-03-23T02:37:21;7.40;99.90
44775;DHT22;31340;51.402;0.016;2024-03-23T02:39:48;7.40;99.90
44775;DHT22;31340;51.402;0.016;2024-03-23T02:42:15;7.40;99.90
44775;DHT22;31340;51.402;0.016;2024-03-23T02:44:44;7.40;99.90
44775;DHT22;31340;51.402;0.016;2024-03-23T02:47:11;7.40;99.90
44775;DHT22;31340;51.402;0.016;2024-03-23T02:49:38;7.40;99.90
44775;DHT22;31340;51.402;0.016;2024-03-23T02:52:04;7.40;99.90
44775;DHT22;31340;51.402;0.016;2024-03-23T02:54:31;7.40;99.90
44775;DHT22;31340;51.402;0.016;2024-03-23T02:56:58;7.40;99.90
44775;DHT22;31340;51.402;0.016;2024-03-23T02:59:24;7.30;99.90
44775;DHT22;31340;51.402;0.016;2024-03-23T03:01:51;7.30;99.90
44775;DHT22;31340;51.402;0.016;2024-03-23T03:04:17;7.30;99.90
44775;DHT22;31340;51.402;0.016;2024-03-23T03:06:47;7.30;99.90
44775;DHT22;31340;51.402;0.016;2024-03-23T03:09:13;7.30;99.90
44775;DHT22;31340;51.402;0.016;2024-03-23T03:11:40;7.30;99.90
44775;DHT22;31340;51.402;0.016;2024-03-23T03:14:06;7.20;99.90
44775;DHT22;31340;51.402;0.016;2024-03-23T03:16:34;7.20;99.90
44775;DHT22;31340;51.402;0.016;2024-03-23T03:19:01;7.20;99.90
44775;DHT22;31340;51.402;0.016;2024-03-23T03:21:27;7.20;99.90
44775;DHT22;31340;51.402;0.016;2024-03-23T03:23:54;7.20;99.90
44775;DHT22;31340;51.402;0.016;2024-03-23T03:26:23;7.10;99.90
44775;DHT22;31340;51.402;0.016;2024-03-23T03:28:50;7.10;99.90
44775;DHT22;31340;51.402;0.016;2024-03-23T03:31:20;7.10;99.90
44775;DHT22;31340;51.402;0.016;2024-03-23T03:33:47;7.10;99.90
44775;DHT22;31340;51.402;0.016;2024-03-23T03:36:15;7.10;99.90
44775;DHT22;31340;51.402;0.016;2024-03-23T03:38:42;7.00;99.90
44775;DHT22;31340;51.402;0.016;2024-03-23T03:41:09;7.00;99.90
44775;DHT22;31340;51.402;0.016;2024-03-23T03:43:35;7.00;99.90
44775;DHT22;31340;51.402;0.016;2024-03-23T03:46:02;7.00;99.90
44775;DHT22;31340;51.402;0.016;2024-03-23T03:48:29;6.90;99.90
44775;DHT22;31340;51.402;0.016;2024-03-23T03:50:56;6.90;99.90
44775;DHT22;31340;51.402;0.016;2024-03-23T03:53:22;6.90;99.90
44775;DHT22;31340;51.402;0.016;2024-03-23T03:55:49;6.90;99.90
44775;DHT22;31340;51.402;0.016;2024-03-23T03:58:15;6.90;99.90
44775;DHT22;31340;51.402;0.016;2024-03-23T04:00:42;6.90;99.90
44775;DHT22;31340;51.402;0.016;2024-03-23T04:03:09;6.80;99.90
44775;DHT22;31340;51.402;0.016;2024-03-23T04:05:36;6.80;99.90
44775;DHT22;31340;51.402;0.016;2024-03-23T04:08:05;6.80;99.90
44775;DHT22;31340;51.402;0.016;2024-03-23T04:10:32;6.80;99.90
44775;DHT22;31340;51.402;0.016;2024-03-23T04:12:59;6.80;99.90
44775;DHT22;31340;51.402;0.016;2024-03-23T04:15:25;6.80;99.90
44775;DHT22;31340;51.402;0.016;2024-03-23T04:17:52;6.70;99.90
44775;DHT22;31340;51.402;0.016;2024-03-23T04:20:19;6.80;99.90
44775;DHT22;31340;51.402;0.016;2024-03-23T04:22:46;6.70;99.90
44775;DHT22;31340;51.402;0.016;2024-03-23T04:25:13;6.70;99.90
44775;DHT22;31340;51.402;0.016;2024-03-23T04:27:40;6.70;99.90
44775;DHT22;31340;51.402;0.016;2024-03-23T04:30:09;6.70;99.90
44775;DHT22;31340;51.402;0.016;2024-03-23T04:32:39;6.70;99.90
44775;DHT22;31340;51.402;0.016;2024-03-23T04:35:06;6.70;99.90
44775;DHT22;31340;51.402;0.016;2024-03-23T04:37:36;6.70;99.90
44775;DHT22;31340;51.402;0.016;2024-03-23T04:40:04;6.70;99.90
44775;DHT22;31340;51.402;0.016;2024-03-23T04:42:31;6.70;99.90
44775;DHT22;31340;51.402;0.016;2024-03-23T04:44:58;6.70;99.90
44775;DHT22;31340;51.402;0.016;2024-03-23T04:47:24;6.70;99.90
44775;DHT22;31340;51.402;0.016;2024-03-23T04:49:53;6.70;99.90
44775;DHT22;31340;51.402;0.016;2024-03-23T04:52:20;6.60;99.90
44775;DHT22;31340;51.402;0.016;2024-03-23T04:54:47;6.60;99.90
44775;DHT22;31340;51.402;0.016;2024-03-23T04:57:13;6.60;99.90
44775;DHT22;31340;51.402;0.016;2024-03-23T04:59:47;6.60;99.90
44775;DHT22;31340;51.402;0.016;2024-03-23T05:02:14;6.50;99.90
44775;DHT22;31340;51.402;0.016;2024-03-23T05:04:42;6.50;99.90
44775;DHT22;31340;51.402;0.016;2024-03-23T05:07:09;6.50;99.90
44775;DHT22;31340;51.402;0.016;2024-03-23T05:09:36;6.50;99.90
44775;DHT22;31340;51.402;0.016;2024-03-23T05:12:03;6.50;99.90
44775;DHT22;31340;51.402;0.016;2024-03-23T05:14:30;6.50;99.90
44775;DHT22;31340;51.402;0.016;2024-03-23T05:16:56;6.50;99.90
44775;DHT22;31340;51.402;0.016;2024-03-23T05:19:23;6.50;99.90
44775;DHT22;31340;51.402;0.016;2024-03-23T05:21:50;6.50;99.90
44775;DHT22;31340;51.402;0.016;2024-03-23T05:24:16;6.50;99.90
44775;DHT22;31340;51.402;0.016;2024-03-23T05:26:43;6.50;99.90
44775;DHT22;31340;51.402;0.016;2024-03-23T05:29:10;6.50;99.90
44775;DHT22;31340;51.402;0.016;2024-03-23T05:31:39;6.40;99.90
44775;DHT22;31340;51.402;0.016;2024-03-23T05:34:08;6.40;99.90
44775;DHT22;31340;51.402;0.016;2024-03-23T05:36:35;6.40;99.90
44775;DHT22;31340;51.402;0.016;2024-03-23T05:39:03;6.40;99.90
44775;DHT22;31340;51.402;0.016;2024-03-23T05:41:30;6.40;99.90
44775;DHT22;31340;51.402;0.016;2024-03-23T05:43:56;6.40;99.90
44775;DHT22;31340;51.402;0.016;2024-03-23T05:46:22;6.40;99.90
44775;DHT22;31340;51.402;0.016;2024-03-23T05:48:50;6.40;99.90
44775;DHT22;31340;51.402;0.016;2024-03-23T05:51:16;6.40;99.90
44775;DHT22;31340;51.402;0.016;2024-03-23T05:53:44;6.40;99.90
44775;DHT22;31340;51.402;0.016;2024-03-23T05:56:11;6.40;99.90
44775;DHT22;31340;51.402;0.016;2024-03-23T05:58:37;6.30;99.90
44775;DHT22;31340;51.402;0.016;2024-03-23T06:01:04;6.30;99.90
44775;DHT22;31340;51.402;0.016;2024-03-23T06:03:31;6.30;99.90
44775;DHT22;31340;51.402;0.016;2024-03-23T06:05:57;6.30;99.90
44775;DHT22;31340;51.402;0.016;2024-03-23T06:08:24;6.30;99.90
44775;DHT22;31340;51.402;0.016;2024-03-23T06:10:51;6.30;99.90
44775;DHT22;31340;51.402;0.016;2024-03-23T06:13:18;6.30;99.90
44775;DHT22;31340;51.402;0.016;2024-03-23T06:15:46;6.30;99.90
44775;DHT22;31340;51.402;0.016;2024-03-23T06:18:13;6.30;99.90
44775;DHT22;31340;51.402;0.016;2024-03-23T06:20:40;6.30;99.90
44775;DHT22;31340;51.402;0.016;2024-03-23T06:23:06;6.30;99.90
44775;DHT22;31340;51.402;0.016;2024-03-23T06:25:33;6.30;99.90
44775;DHT22;31340;51.402;0.016;2024-03-23T06:28:00;6.30;99.90
44775;DHT22;31340;51.402;0.016;2024-03-23T06:30:27;6.30;99.90
44775;DHT22;31340;51.402;0.016;2024-03-23T06:32:55;6.30;99.90
44775;DHT22;31340;51.402;0.016;2024-03-23T06:35:22;6.30;99.90
44775;DHT22;31340;51.402;0.016;2024-03-23T06:37:49;6.30;99.90
44775;DHT22;31340;51.402;0.016;2024-03-23T06:40:16;6.30;99.90
44775;DHT22;31340;51.402;0.016;2024-03-23T06:42:42;6.30;99.90
44775;DHT22;31340;51.402;0.016;2024-03-23T06:45:09;6.30;99.90
44775;DHT22;31340;51.402;0.016;2024-03-23T06:47:36;6.40;99.90
44775;DHT22;31340;51.402;0.016;2024-03-23T06:50:03;6.40;99.90
44775;DHT22;31340;51.402;0.016;2024-03-23T06:52:32;6.40;99.90
44775;DHT22;31340;51.402;0.016;2024-03-23T06:54:58;6.40;99.90
44775;DHT22;31340;51.402;0.016;2024-03-23T06:57:25;6.40;99.90
44775;DHT22;31340;51.402;0.016;2024-03-23T06:59:51;6.50;99.90
44775;DHT22;31340;51.402;0.016;2024-03-23T07:02:18;6.40;99.90
44775;DHT22;31340;51.402;0.016;2024-03-23T07:04:45;6.50;99.90
44775;DHT22;31340;51.402;0.016;2024-03-23T07:07:12;6.50;99.90
44775;DHT22;31340;51.402;0.016;2024-03-23T07:09:39;6.50;99.90
44775;DHT22;31340;51.402;0.016;2024-03-23T07:12:06;6.60;99.90
44775;DHT22;31340;51.402;0.016;2024-03-23T07:14:32;6.60;99.90
44775;DHT22;31340;51.402;0.016;2024-03-23T07:16:59;6.60;99.90
44775;DHT22;31340;51.402;0.016;2024-03-23T07:19:25;6.70;99.90
44775;DHT22;31340;51.402;0.016;2024-03-23T07:21:52;6.70;99.90
44775;DHT22;31340;51.402;0.016;2024-03-23T07:24:19;6.70;99.90
44775;DHT22;31340;51.402;0.016;2024-03-23T07:26:45;6.80;99.90
44775;DHT22;31340;51.402;0.016;2024-03-23T07:29:12;6.80;99.90
44775;DHT22;31340;51.402;0.016;2024-03-23T07:31:39;6.80;99.90
44775;DHT22;31340;51.402;0.016;2024-03-23T07:34:05;6.90;99.90
44775;DHT22;31340;51.402;0.016;2024-03-23T07:36:32;6.90;99.90
44775;DHT22;31340;51.402;0.016;2024-03-23T07:38:58;6.90;99.90
44775;DHT22;31340;51.402;0.016;2024-03-23T07:41:26;7.00;99.90
44775;DHT22;31340;51.402;0.016;2024-03-23T07:43:54;7.00;99.90
44775;DHT22;31340;51.402;0.016;2024-03-23T07:46:20;7.10;99.90
44775;DHT22;31340;51.402;0.016;2024-03-23T07:48:47;7.10;99.90
44775;DHT22;31340;51.402;0.016;2024-03-23T07:51:21;7.20;99.90
44775;DHT22;31340;51.402;0.016;2024-03-23T07:53:49;7.30;99.90
44775;DHT22;31340;51.402;0.016;2024-03-23T07:56:16;7.30;99.90
44775;DHT22;31340;51.402;0.016;2024-03-23T07:58:44;7.30;99.90
44775;DHT22;31340;51.402;0.016;2024-03-23T08:01:13;7.40;99.90
44775;DHT22;31340;51.402;0.016;2024-03-23T08:03:45;7.40;99.90
44775;DHT22;31340;51.402;0.016;2024-03-23T08:06:12;7.50;99.90
44775;DHT22;31340;51.402;0.016;2024-03-23T08:08:42;7.50;99.90
44775;DHT22;31340;51.402;0.016;2024-03-23T08:11:09;7.50;99.90
44775;DHT22;31340;51.402;0.016;2024-03-23T08:13:38;7.60;99.90
44775;DHT22;31340;51.402;0.016;2024-03-23T08:16:05;7.70;99.90
44775;DHT22;31340;51.402;0.016;2024-03-23T08:18:33;7.70;99.90
44775;DHT22;31340;51.402;0.016;2024-03-23T08:21:04;7.80;99.90
44775;DHT22;31340;51.402;0.016;2024-03-23T08:23:33;7.90;99.90
44775;DHT22;31340;51.402;0.016;2024-03-23T08:26:06;7.90;99.90
44775;DHT22;31340;51.402;0.016;2024-03-23T08:28:33;7.90;99.90
44775;DHT22;31340;51.402;0.016;2024-03-23T08:31:13;8.00;99.90
44775;DHT22;31340;51.402;0.016;2024-03-23T08:33:41;8.10;99.90
44775;DHT22;31340;51.402;0.016;2024-03-23T08:36:10;8.10;99.90
44775;DHT22;31340;51.402;0.016;2024-03-23T08:38:43;8.20;99.90
44775;DHT22;31340;51.402;0.016;2024-03-23T08:41:10;8.20;99.90
44775;DHT22;31340;51.402;0.016;2024-03-23T08:43:39;8.30;99.90
44775;DHT22;31340;51.402;0.016;2024-03-23T08:46:12;8.30;99.90
44775;DHT22;31340;51.402;0.016;2024-03-23T08:48:41;8.40;99.90
44775;DHT22;31340;51.402;0.016;2024-03-23T08:51:14;8.50;99.90
44775;DHT22;31340;51.402;0.016;2024-03-23T08:53:41;8.60;99.80
44775;DHT22;31340;51.402;0.016;2024-03-23T08:56:08;8.70;99.60
44775;DHT22;31340;51.402;0.016;2024-03-23T08:58:36;8.70;99.50
44775;DHT22;31340;51.402;0.016;2024-03-23T09:01:07;8.80;99.30
44775;DHT22;31340;51.402;0.016;2024-03-23T09:03:33;8.80;98.80
44775;DHT22;31340;51.402;0.016;2024-03-23T09:06:06;9.00;98.80
44775;DHT22;31340;51.402;0.016;2024-03-23T09:08:33;9.00;99.10
44775;DHT22;31340;51.402;0.016;2024-03-23T09:11:05;9.10;98.50
44775;DHT22;31340;51.402;0.016;2024-03-23T09:13:34;9.20;98.20
44775;DHT22;31340;51.402;0.016;2024-03-23T09:16:01;9.30;97.90
44775;DHT22;31340;51.402;0.016;2024-03-23T09:18:31;9.40;97.90
44775;DHT22;31340;51.402;0.016;2024-03-23T09:20:57;9.50;97.80
44775;DHT22;31340;51.402;0.016;2024-03-23T09:23:24;9.50;97.30
44775;DHT22;31340;51.402;0.016;2024-03-23T09:25:50;9.60;97.00
44775;DHT22;31340;51.402;0.016;2024-03-23T09:28:17;9.70;97.00
44775;DHT22;31340;51.402;0.016;2024-03-23T09:30:44;9.80;96.60
44775;DHT22;31340;51.402;0.016;2024-03-23T09:33:11;9.90;96.50
44775;DHT22;31340;51.402;0.016;2024-03-23T09:35:43;9.90;96.10
44775;DHT22;31340;51.402;0.016;2024-03-23T09:38:11;10.00;96.00
44775;DHT22;31340;51.402;0.016;2024-03-23T09:40:41;10.00;95.70
44775;DHT22;31340;51.402;0.016;2024-03-23T09:43:10;10.00;95.60
44775;DHT22;31340;51.402;0.016;2024-03-23T09:45:40;10.10;95.60
44775;DHT22;31340;51.402;0.016;2024-03-23T09:48:08;10.20;95.60
44775;DHT22;31340;51.402;0.016;2024-03-23T09:50:39;10.30;95.40
44775;DHT22;31340;51.402;0.016;2024-03-23T09:53:13;10.30;95.20
44775;DHT22;31340;51.402;0.016;2024-03-23T09:55:44;10.50;94.50
44775;DHT22;31340;51.402;0.016;2024-03-23T09:58:14;10.50;94.60
44775;DHT22;31340;51.402;0.016;2024-03-23T10:00:41;10.60;95.00
44775;DHT22;31340;51.402;0.016;2024-03-23T10:03:08;10.60;95.00
44775;DHT22;31340;51.402;0.016;2024-03-23T10:05:37;10.70;94.40
44775;DHT22;31340;51.402;0.016;2024-03-23T10:10:43;10.90;93.80
44775;DHT22;31340;51.402;0.016;2024-03-23T10:13:11;10.90;93.20
44775;DHT22;31340;51.402;0.016;2024-03-23T10:15:40;10.90;93.30
44775;DHT22;31340;51.402;0.016;2024-03-23T10:18:18;11.00;93.30
44775;DHT22;31340;51.402;0.016;2024-03-23T10:20:50;11.00;93.30
44775;DHT22;31340;51.402;0.016;2024-03-23T10:23:17;11.10;93.50
44775;DHT22;31340;51.402;0.016;2024-03-23T10:25:44;11.10;93.30
44775;DHT22;31340;51.402;0.016;2024-03-23T10:28:12;11.20;93.20
44775;DHT22;31340;51.402;0.016;2024-03-23T10:30:38;11.20;92.90
44775;DHT22;31340;51.402;0.016;2024-03-23T10:33:09;11.30;93.00
44775;DHT22;31340;51.402;0.016;2024-03-23T10:35:39;11.30;92.90
44775;DHT22;31340;51.402;0.016;2024-03-23T10:38:06;11.40;93.20
44775;DHT22;31340;51.402;0.016;2024-03-23T10:40:36;11.40;92.60
44775;DHT22;31340;51.402;0.016;2024-03-23T10:43:04;11.50;92.30
44775;DHT22;31340;51.402;0.016;2024-03-23T10:45:31;11.60;92.20
44775;DHT22;31340;51.402;0.016;2024-03-23T10:47:58;11.70;92.10
44775;DHT22;31340;51.402;0.016;2024-03-23T10:50:25;11.70;91.00
44775;DHT22;31340;51.402;0.016;2024-03-23T10:52:53;11.80;91.10
44775;DHT22;31340;51.402;0.016;2024-03-23T10:55:22;11.80;90.80
44775;DHT22;31340;51.402;0.016;2024-03-23T10:57:54;11.90;91.10
44775;DHT22;31340;51.402;0.016;2024-03-23T11:00:22;12.00;91.30
44775;DHT22;31340;51.402;0.016;2024-03-23T11:02:51;12.00;91.20
44775;DHT22;31340;51.402;0.016;2024-03-23T11:07:51;12.30;90.70
44775;DHT22;31340;51.402;0.016;2024-03-23T11:10:26;12.30;90.60
44775;DHT22;31340;51.402;0.016;2024-03-23T11:12:53;12.50;90.30
44775;DHT22;31340;51.402;0.016;2024-03-23T11:15:20;12.50;89.60
44775;DHT22;31340;51.402;0.016;2024-03-23T11:18:07;12.60;89.50
44775;DHT22;31340;51.402;0.016;2024-03-23T11:20:38;12.70;89.20
44775;DHT22;31340;51.402;0.016;2024-03-23T11:23:05;12.70;89.20
44775;DHT22;31340;51.402;0.016;2024-03-23T11:25:31;12.80;88.30
44775;DHT22;31340;51.402;0.016;2024-03-23T11:28:12;12.90;88.40
44775;DHT22;31340;51.402;0.016;2024-03-23T11:30:39;13.00;88.00
44775;DHT22;31340;51.402;0.016;2024-03-23T11:33:05;13.10;87.80
44775;DHT22;31340;51.402;0.016;2024-03-23T11:35:39;13.20;87.50
44775;DHT22;31340;51.402;0.016;2024-03-23T11:38:10;13.30;86.30
44775;DHT22;31340;51.402;0.016;2024-03-23T11:40:41;13.50;85.50
44775;DHT22;31340;51.402;0.016;2024-03-23T11:43:09;13.60;85.20
44775;DHT22;31340;51.402;0.016;2024-03-23T11:45:44;13.60;84.10
44775;DHT22;31340;51.402;0.016;2024-03-23T11:48:13;13.70;82.90
44775;DHT22;31340;51.402;0.016;2024-03-23T11:50:44;13.70;82.50
44775;DHT22;31340;51.402;0.016;2024-03-23T11:53:21;13.80;82.60
44775;DHT22;31340;51.402;0.016;2024-03-23T11:55:50;13.90;82.80
44775;DHT22;31340;51.402;0.016;2024-03-23T11:58:19;14.00;82.50
44775;DHT22;31340;51.402;0.016;2024-03-23T12:01:02;14.20;81.60
44775;DHT22;31340;51.402;0.016;2024-03-23T12:03:30;14.30;80.40
44775;DHT22;31340;51.402;0.016;2024-03-23T12:05:59;14.40;80.00
44775;DHT22;31340;51.402;0.016;2024-03-23T12:08:37;14.50;79.70
44775;DHT22;31340;51.402;0.016;2024-03-23T12:11:14;14.60;78.30
44775;DHT22;31340;51.402;0.016;2024-03-23T12:13:43;14.60;77.00
44775;DHT22;31340;51.402;0.016;2024-03-23T12:16:16;14.50;76.00
44775;DHT22;31340;51.402;0.016;2024-03-23T12:18:44;14.60;75.70
44775;DHT22;31340;51.402;0.016;2024-03-23T12:21:11;14.50;75.30
44775;DHT22;31340;51.402;0.016;2024-03-23T12:23:41;14.60;75.80
44775;DHT22;31340;51.402;0.016;2024-03-23T12:26:15;14.70;75.60
44775;DHT22;31340;51.402;0.016;2024-03-23T12:28:43;14.70;75.30
44775;DHT22;31340;51.402;0.016;2024-03-23T12:31:10;14.90;75.60
44775;DHT22;31340;51.402;0.016;2024-03-23T12:33:37;15.00;75.40
44775;DHT22;31340;51.402;0.016;2024-03-23T12:36:04;15.20;74.20
44775;DHT22;31340;51.402;0.016;2024-03-23T12:38:31;15.30;73.20
44775;DHT22;31340;51.402;0.016;2024-03-23T12:40:57;15.50;72.90
44775;DHT22;31340;51.402;0.016;2024-03-23T12:43:24;15.60;71.90
44775;DHT22;31340;51.402;0.016;2024-03-23T12:45:50;15.80;71.00
44775;DHT22;31340;51.402;0.016;2024-03-23T12:48:17;15.80;70.20
44775;DHT22;31340;51.402;0.016;2024-03-23T12:50:43;15.90;70.60
44775;DHT22;31340;51.402;0.016;2024-03-23T12:53:10;16.00;70.60
44775;DHT22;31340;51.402;0.016;2024-03-23T12:55:37;16.00;69.20
44775;DHT22;31340;51.402;0.016;2024-03-23T12:58:04;16.10;69.40
44775;DHT22;31340;51.402;0.016;2024-03-23T13:00:31;16.20;69.90
44775;DHT22;31340;51.402;0.016;2024-03-23T13:02:58;16.20;69.60
44775;DHT22;31340;51.402;0.016;2024-03-23T13:05:24;16.10;69.70
44775;DHT22;31340;51.402;0.016;2024-03-23T13:07:51;16.10;69.90
44775;DHT22;31340;51.402;0.016;2024-03-23T13:10:18;16.10;69.90
44775;DHT22;31340;51.402;0.016;2024-03-23T13:12:44;16.10;70.10
44775;DHT22;31340;51.402;0.016;2024-03-23T13:15:11;16.00;71.10
44775;DHT22;31340;51.402;0.016;2024-03-23T13:17:37;15.90;71.20
44775;DHT22;31340;51.402;0.016;2024-03-23T13:20:04;15.90;71.10
44775;DHT22;31340;51.402;0.016;2024-03-23T13:22:31;15.90;71.40
44775;DHT22;31340;51.402;0.016;2024-03-23T13:24:58;15.80;71.30
44775;DHT22;31340;51.402;0.016;2024-03-23T13:27:26;15.70;72.00
44775;DHT22;31340;51.402;0.016;2024-03-23T13:29:52;15.70;72.60
44775;DHT22;31340;51.402;0.016;2024-03-23T13:32:19;15.60;73.20
44775;DHT22;31340;51.402;0.016;2024-03-23T13:34:46;15.50;73.20
44775;DHT22;31340;51.402;0.016;2024-03-23T13:37:16;15.30;73.90
44775;DHT22;31340;51.402;0.016;2024-03-23T13:39:43;15.30;74.50
44775;DHT22;31340;51.402;0.016;2024-03-23T13:42:10;15.20;74.90
44775;DHT22;31340;51.402;0.016;2024-03-23T13:44:38;15.00;75.40
44775;DHT22;31340;51.402;0.016;2024-03-23T13:47:05;14.90;75.90
44775;DHT22;31340;51.402;0.016;2024-03-23T13:49:32;14.70;76.40
44775;DHT22;31340;51.402;0.016;2024-03-23T13:51:59;14.60;77.40
44775;DHT22;31340;51.402;0.016;2024-03-23T13:54:26;14.50;77.60
44775;DHT22;31340;51.402;0.016;2024-03-23T13:56:54;14.40;79.60
44775;DHT22;31340;51.402;0.016;2024-03-23T13:59:22;14.10;80.40
44775;DHT22;31340;51.402;0.016;2024-03-23T14:01:51;13.80;81.90
44775;DHT22;31340;51.402;0.016;2024-03-23T14:04:18;13.40;83.20
44775;DHT22;31340;51.402;0.016;2024-03-23T14:06:49;13.00;84.50
44775;DHT22;31340;51.402;0.016;2024-03-23T14:09:16;12.50;84.30
44775;DHT22;31340;51.402;0.016;2024-03-23T14:11:47;12.10;86.30
44775;DHT22;31340;51.402;0.016;2024-03-23T14:14:15;11.70;88.60
44775;DHT22;31340;51.402;0.016;2024-03-23T14:16:43;11.50;90.20
44775;DHT22;31340;51.402;0.016;2024-03-23T14:19:10;11.20;90.90
44775;DHT22;31340;51.402;0.016;2024-03-23T14:21:37;11.00;91.60
44775;DHT22;31340;51.402;0.016;2024-03-23T14:24:04;10.80;92.40
44775;DHT22;31340;51.402;0.016;2024-03-23T14:26:31;10.60;92.80
44775;DHT22;31340;51.402;0.016;2024-03-23T14:28:58;10.50;93.50
44775;DHT22;31340;51.402;0.016;2024-03-23T14:31:24;10.40;94.20
44775;DHT22;31340;51.402;0.016;2024-03-23T14:33:51;10.40;94.70
44775;DHT22;31340;51.402;0.016;2024-03-23T14:36:18;10.50;95.20
44775;DHT22;31340;51.402;0.016;2024-03-23T14:38:48;10.70;95.60
44775;DHT22;31340;51.402;0.016;2024-03-23T14:41:15;10.90;96.40
44775;DHT22;31340;51.402;0.016;2024-03-23T14:43:42;11.10;96.50
44775;DHT22;31340;51.402;0.016;2024-03-23T14:46:16;11.40;96.40
44775;DHT22;31340;51.402;0.016;2024-03-23T14:48:44;11.70;96.20
44775;DHT22;31340;51.402;0.016;2024-03-23T14:51:11;12.00;95.90
44775;DHT22;31340;51.402;0.016;2024-03-23T14:53:39;12.30;95.80
44775;DHT22;31340;51.402;0.016;2024-03-23T14:56:09;12.70;95.50
44775;DHT22;31340;51.402;0.016;2024-03-23T14:58:39;13.00;94.90
44775;DHT22;31340;51.402;0.016;2024-03-23T15:01:07;13.40;94.60
44775;DHT22;31340;51.402;0.016;2024-03-23T15:03:40;13.80;94.00
44775;DHT22;31340;51.402;0.016;2024-03-23T15:06:09;14.20;93.50
44775;DHT22;31340;51.402;0.016;2024-03-23T15:08:36;14.50;92.90
44775;DHT22;31340;51.402;0.016;2024-03-23T15:11:05;14.80;92.00
44775;DHT22;31340;51.402;0.016;2024-03-23T15:13:33;14.90;91.30
44775;DHT22;31340;51.402;0.016;2024-03-23T15:15:59;15.10;91.30
44775;DHT22;31340;51.402;0.016;2024-03-23T15:18:26;15.30;91.10
44775;DHT22;31340;51.402;0.016;2024-03-23T15:20:53;15.50;90.20
44775;DHT22;31340;51.402;0.016;2024-03-23T15:23:20;15.60;89.70
44775;DHT22;31340;51.402;0.016;2024-03-23T15:26:01;15.80;89.20
44775;DHT22;31340;51.402;0.016;2024-03-23T15:28:29;16.00;87.50
44775;DHT22;31340;51.402;0.016;2024-03-23T15:31:05;16.10;87.10
44775;DHT22;31340;51.402;0.016;2024-03-23T15:33:31;16.30;86.90
44775;DHT22;31340;51.402;0.016;2024-03-23T15:35:59;16.40;86.30
44775;DHT22;31340;51.402;0.016;2024-03-23T15:38:26;16.60;84.80
44775;DHT22;31340;51.402;0.016;2024-03-23T15:40:52;16.70;84.80
44775;DHT22;31340;51.402;0.016;2024-03-23T15:43:19;16.90;84.60
44775;DHT22;31340;51.402;0.016;2024-03-23T15:45:56;17.10;82.70
44775;DHT22;31340;51.402;0.016;2024-03-23T15:48:22;17.20;82.10
44775;DHT22;31340;51.402;0.016;2024-03-23T15:50:59;17.40;82.10
44775;DHT22;31340;51.402;0.016;2024-03-23T15:53:27;17.50;81.90
44775;DHT22;31340;51.402;0.016;2024-03-23T15:55:54;17.50;83.00
44775;DHT22;31340;51.402;0.016;2024-03-23T15:58:22;17.40;81.90
44775;DHT22;31340;51.402;0.016;2024-03-23T16:00:55;17.30;80.30
44775;DHT22;31340;51.402;0.016;2024-03-23T16:03:23;17.20;79.30
44775;DHT22;31340;51.402;0.016;2024-03-23T16:05:58;17.00;79.50
44775;DHT22;31340;51.402;0.016;2024-03-23T16:08:26;16.80;78.00
44775;DHT22;31340;51.402;0.016;2024-03-23T16:10:53;16.60;77.60
44775;DHT22;31340;51.402;0.016;2024-03-23T16:13:20;16.10;77.50
44775;DHT22;31340;51.402;0.016;2024-03-23T16:16:00;15.60;79.20
44775;DHT22;31340;51.402;0.016;2024-03-23T16:18:30;15.20;80.90
44775;DHT22;31340;51.402;0.016;2024-03-23T16:20:59;14.80;82.20
44775;DHT22;31340;51.402;0.016;2024-03-23T16:23:26;14.60;83.00
44775;DHT22;31340;51.402;0.016;2024-03-23T16:25:55;14.50;84.00
44775;DHT22;31340;51.402;0.016;2024-03-23T16:28:27;14.50;85.40
44775;DHT22;31340;51.402;0.016;2024-03-23T16:31:01;14.50;86.10
44775;DHT22;31340;51.402;0.016;2024-03-23T16:33:29;14.50;86.40
44775;DHT22;31340;51.402;0.016;2024-03-23T16:35:59;14.50;86.80
44775;DHT22;31340;51.402;0.016;2024-03-23T16:38:27;14.60;87.90
44775;DHT22;31340;51.402;0.016;2024-03-23T16:40:55;14.70;88.90
44775;DHT22;31340;51.402;0.016;2024-03-23T16:43:21;14.80;89.20